createdAt,value
2022-11-19T00:02:19.327Z,3.78
2022-11-19T00:04:48.260Z,2.63
2022-11-19T00:07:17.542Z,2.63
2022-11-19T00:09:44.330Z,3.08
2022-11-19T00:12:29.870Z,2.97
2022-11-19T00:14:59.022Z,1.90
2022-11-19T00:17:25.753Z,3.97
2022-11-19T00:19:52.485Z,2.30
2022-11-19T00:22:19.207Z,2.30
2022-11-19T00:24:45.879Z,2.63
2022-11-19T00:27:17.258Z,2.15
2022-11-19T00:29:46.108Z,1.83
2022-11-19T00:32:12.838Z,1.60
2022-11-19T00:34:41.838Z,1.60
2022-11-19T00:37:11.025Z,1.90
2022-11-19T00:39:37.786Z,2.50
2022-11-19T00:42:06.853Z,1.63
2022-11-19T00:44:37.158Z,1.48
2022-11-19T00:47:08.788Z,0.50
2022-11-19T00:49:40.253Z,0.67
2022-11-19T00:52:06.940Z,1.70
2022-11-19T00:54:35.825Z,2.80
2022-11-19T00:57:04.736Z,2.08
2022-11-19T00:59:31.392Z,3.17
2022-11-19T01:02:02.472Z,2.20
2022-11-19T01:04:31.578Z,1.63
2022-11-19T01:07:00.732Z,2.45
2022-11-19T01:09:29.956Z,2.95
2022-11-19T01:12:01.320Z,4.00
2022-11-19T01:14:30.198Z,2.03
2022-11-19T01:16:56.961Z,1.52
2022-11-19T01:19:26.101Z,1.15
2022-11-19T01:21:55.012Z,2.47
2022-11-19T01:24:24.226Z,3.85
2022-11-19T01:26:55.287Z,3.92
2022-11-19T01:29:24.348Z,1.33
2022-11-19T01:31:53.143Z,1.38
2022-11-19T01:34:19.881Z,2.35
2022-11-19T01:36:46.603Z,2.47
2022-11-19T01:39:15.841Z,3.88
2022-11-19T01:41:42.518Z,2.58
2022-11-19T01:44:47.922Z,3.60
2022-11-19T01:47:16.833Z,2.45
2022-11-19T01:49:45.826Z,2.40
2022-11-19T01:52:14.994Z,4.57
2022-11-19T01:54:49.597Z,4.05
2022-11-19T01:57:18.124Z,3.72
2022-11-19T01:59:48.763Z,4.15
2022-11-19T02:02:19.855Z,3.53
2022-11-19T02:04:51.696Z,3.92
2022-11-19T02:07:29.095Z,5.93
2022-11-19T02:10:03.024Z,2.75
2022-11-19T02:12:44.511Z,2.28
2022-11-19T02:15:29.478Z,2.55
2022-11-19T02:18:30.366Z,2.58
2022-11-19T02:20:57.057Z,2.67
2022-11-19T02:24:01.691Z,3.70
2022-11-19T02:27:03.982Z,3.42
2022-11-19T02:29:31.489Z,4.35
2022-11-19T02:32:18.273Z,3.08
2022-11-19T02:34:56.715Z,2.95
2022-11-19T02:37:38.590Z,3.58
2022-11-19T02:40:05.430Z,3.15
2022-11-19T02:42:48.285Z,5.20
2022-11-19T02:45:28.691Z,4.70
2022-11-19T02:48:03.319Z,3.83
2022-11-19T02:50:43.378Z,3.20
2022-11-19T02:53:12.758Z,1.23
2022-11-19T02:56:00.102Z,4.80
2022-11-19T02:58:45.349Z,4.28
2022-11-19T03:01:30.984Z,2.88
2022-11-19T03:04:16.209Z,5.03
2022-11-19T03:06:42.996Z,3.88
2022-11-19T03:09:10.191Z,3.15
2022-11-19T03:11:39.074Z,6.10
2022-11-19T03:14:52.624Z,4.10
2022-11-19T03:17:27.290Z,4.65
2022-11-19T03:20:18.214Z,3.30
2022-11-19T03:23:06.333Z,3.70
2022-11-19T03:25:43.904Z,5.32
2022-11-19T03:28:15.267Z,3.58
2022-11-19T03:30:45.421Z,4.55
2022-11-19T03:33:22.036Z,6.05
2022-11-19T03:35:53.373Z,5.03
2022-11-19T03:38:27.614Z,4.28
2022-11-19T03:40:56.837Z,6.07
2022-11-19T03:43:29.307Z,5.70
2022-11-19T03:46:01.665Z,3.63
2022-11-19T03:48:33.246Z,4.85
2022-11-19T03:51:22.288Z,3.75
2022-11-19T03:53:49.398Z,4.40
2022-11-19T03:56:24.201Z,5.60
2022-11-19T03:58:53.459Z,4.13
2022-11-19T04:01:21.188Z,3.88
2022-11-19T04:04:08.865Z,4.15
2022-11-19T04:06:38.151Z,4.28
2022-11-19T04:09:04.914Z,3.78
2022-11-19T04:11:34.058Z,4.63
2022-11-19T04:14:02.925Z,7.20
2022-11-19T04:16:29.796Z,6.53
2022-11-19T04:18:56.495Z,5.22
2022-11-19T04:21:27.603Z,3.03
2022-11-19T04:23:54.406Z,4.80
2022-11-19T04:26:23.609Z,7.63
2022-11-19T04:28:53.274Z,5.45
2022-11-19T04:31:20.018Z,3.80
2022-11-19T04:33:46.796Z,4.47
2022-11-19T04:36:13.655Z,3.95
2022-11-19T04:38:43.004Z,4.97
2022-11-19T04:41:12.036Z,3.78
2022-11-19T04:43:38.833Z,3.42
2022-11-19T04:46:08.239Z,4.05
2022-11-19T04:48:37.266Z,3.10
2022-11-19T04:51:08.625Z,3.97
2022-11-19T04:53:37.815Z,4.43
2022-11-19T04:56:04.609Z,5.05
2022-11-19T04:58:31.716Z,3.72
2022-11-19T05:01:00.670Z,7.20
2022-11-19T05:03:29.539Z,4.35
2022-11-19T05:05:56.257Z,4.22
2022-11-19T05:08:25.534Z,5.05
2022-11-19T05:10:52.555Z,4.82
2022-11-19T05:13:21.605Z,7.10
2022-11-19T05:15:48.287Z,7.25
2022-11-19T05:18:15.203Z,5.28
2022-11-19T05:20:44.064Z,6.00
2022-11-19T05:23:14.202Z,5.72
2022-11-19T05:25:40.924Z,5.65
2022-11-19T05:28:07.692Z,4.45
2022-11-19T05:30:34.528Z,5.03
2022-11-19T05:33:01.620Z,4.10
2022-11-19T05:35:30.548Z,3.88
2022-11-19T05:37:57.203Z,4.18
2022-11-19T05:40:24.163Z,4.45
2022-11-19T05:42:55.626Z,4.05
2022-11-19T05:45:22.379Z,3.20
2022-11-19T05:47:54.446Z,4.30
2022-11-19T05:52:52.568Z,6.25
2022-11-19T05:55:21.474Z,7.07
2022-11-19T05:57:50.450Z,6.00
2022-11-19T06:00:18.431Z,5.18
2022-11-19T06:02:47.441Z,2.88
2022-11-19T06:05:14.270Z,4.80
2022-11-19T06:07:43.297Z,4.20
2022-11-19T06:10:12.327Z,6.32
2022-11-19T06:12:45.521Z,3.20
2022-11-19T06:15:18.532Z,3.10
2022-11-19T06:17:45.246Z,3.10
2022-11-19T06:20:12.041Z,5.03
2022-11-19T06:22:40.048Z,3.70
2022-11-19T06:25:07.946Z,3.35
2022-11-19T06:27:37.202Z,4.03
2022-11-19T06:30:07.178Z,3.10
2022-11-19T06:32:36.195Z,3.22
2022-11-19T06:35:03.106Z,2.75
2022-11-19T06:37:31.956Z,7.68
2022-11-19T06:39:58.689Z,3.67
2022-11-19T06:42:36.897Z,3.92
2022-11-19T06:45:12.573Z,3.20
2022-11-19T06:47:40.983Z,4.35
2022-11-19T06:50:13.338Z,5.18
2022-11-19T06:52:42.287Z,3.47
2022-11-19T06:55:09.242Z,2.63
2022-11-19T06:57:40.596Z,3.95
2022-11-19T07:00:07.979Z,2.53
2022-11-19T07:02:37.725Z,4.88
2022-11-19T07:05:06.013Z,4.72
2022-11-19T07:07:37.450Z,3.13
2022-11-19T07:10:07.260Z,4.25
2022-11-19T07:12:34.227Z,3.65
2022-11-19T07:15:04.739Z,3.55
2022-11-19T07:17:36.135Z,3.88
2022-11-19T07:20:04.950Z,4.33
2022-11-19T07:22:31.695Z,5.00
2022-11-19T07:24:58.426Z,6.50
2022-11-19T07:27:29.581Z,4.13
2022-11-19T07:30:02.190Z,2.70
2022-11-19T07:32:28.947Z,2.10
2022-11-19T07:34:58.024Z,2.40
2022-11-19T07:37:24.764Z,3.35
2022-11-19T07:39:53.919Z,5.22
2022-11-19T07:42:41.694Z,4.35
2022-11-19T07:45:09.695Z,5.13
2022-11-19T07:47:36.543Z,3.83
2022-11-19T07:50:06.563Z,3.95
2022-11-19T07:52:33.355Z,2.90
2022-11-19T07:55:02.676Z,4.10
2022-11-19T07:57:31.955Z,2.22
2022-11-19T07:59:58.860Z,3.03
2022-11-19T08:02:28.069Z,4.68
2022-11-19T08:04:54.782Z,4.78
2022-11-19T08:07:21.679Z,3.58
2022-11-19T08:09:50.641Z,3.88
2022-11-19T08:12:17.368Z,4.65
2022-11-19T08:14:46.779Z,4.20
2022-11-19T08:17:31.798Z,3.22
2022-11-19T08:20:03.062Z,2.30
2022-11-19T08:22:29.818Z,3.17
2022-11-19T08:24:59.000Z,2.22
2022-11-19T08:27:28.185Z,2.55
2022-11-19T08:29:55.050Z,3.40
2022-11-19T08:32:24.006Z,2.72
2022-11-19T08:34:50.806Z,2.35
2022-11-19T08:37:17.962Z,3.47
2022-11-19T08:39:44.740Z,2.92
2022-11-19T08:42:32.950Z,2.97
2022-11-19T08:45:02.195Z,1.40
2022-11-19T08:47:28.913Z,3.13
2022-11-19T08:49:56.023Z,1.85
2022-11-19T08:52:25.439Z,1.50
2022-11-19T08:54:54.402Z,2.78
2022-11-19T08:57:25.675Z,1.40
2022-11-19T09:00:05.933Z,3.08
2022-11-19T09:02:35.513Z,1.55
2022-11-19T09:05:04.581Z,1.60
2022-11-19T09:07:33.548Z,2.40
2022-11-19T09:10:00.283Z,1.40
2022-11-19T09:12:30.381Z,2.17
2022-11-19T09:15:01.912Z,2.03
2022-11-19T09:17:33.866Z,1.92
2022-11-19T09:22:33.239Z,1.52
2022-11-19T09:25:00.073Z,3.22
2022-11-19T09:27:28.842Z,1.23
2022-11-19T09:29:55.740Z,1.88
2022-11-19T09:32:25.403Z,1.92
2022-11-19T09:34:52.443Z,2.17
2022-11-19T09:37:21.851Z,1.75
2022-11-19T09:39:50.871Z,1.75
2022-11-19T09:42:38.034Z,4.90
2022-11-19T09:45:04.750Z,2.25
2022-11-19T09:47:52.023Z,2.47
2022-11-19T09:50:22.573Z,2.97
2022-11-19T09:53:00.315Z,1.73
2022-11-19T09:55:34.989Z,2.13
2022-11-19T09:58:07.447Z,3.10
2022-11-19T10:00:36.464Z,1.75
2022-11-19T10:03:13.464Z,2.95
2022-11-19T10:06:08.062Z,1.30
2022-11-19T10:08:59.739Z,2.20
2022-11-19T10:11:40.506Z,1.73
2022-11-19T10:14:40.551Z,2.42
2022-11-19T10:17:19.785Z,1.40
2022-11-19T10:20:12.962Z,2.00
2022-11-19T10:23:09.027Z,5.00
2022-11-19T10:25:50.002Z,2.80
2022-11-19T10:28:25.407Z,1.70
2022-11-19T10:31:00.511Z,1.30
2022-11-19T10:33:44.206Z,2.90
2022-11-19T10:36:29.388Z,2.60
2022-11-19T10:39:32.748Z,2.35
2022-11-19T10:42:08.115Z,2.95
2022-11-19T10:44:47.816Z,2.38
2022-11-19T10:47:20.451Z,1.40
2022-11-19T10:49:54.795Z,1.92
2022-11-19T10:52:42.495Z,1.23
2022-11-19T10:55:15.357Z,1.35
2022-11-19T10:57:42.419Z,1.50
2022-11-19T11:00:12.556Z,2.85
2022-11-19T11:02:51.202Z,1.80
2022-11-19T11:05:18.842Z,2.20
2022-11-19T11:07:49.788Z,2.05
2022-11-19T11:10:48.400Z,2.65
2022-11-19T11:13:54.085Z,1.75
2022-11-19T11:16:28.263Z,2.40
2022-11-19T11:19:00.907Z,3.13
2022-11-19T11:21:39.681Z,3.25
2022-11-19T11:24:07.385Z,3.50
2022-11-19T11:26:37.951Z,2.20
2022-11-19T11:29:12.382Z,2.55
2022-11-19T11:31:44.734Z,2.53
2022-11-19T11:34:35.802Z,1.67
2022-11-19T11:37:06.761Z,2.53
2022-11-19T11:39:39.094Z,3.47
2022-11-19T11:42:17.575Z,1.65
2022-11-19T11:45:04.144Z,3.08
2022-11-19T11:47:36.485Z,1.75
2022-11-19T11:50:17.343Z,1.75
2022-11-19T11:52:49.294Z,2.75
2022-11-19T11:58:08.674Z,2.15
2022-11-19T12:00:35.393Z,1.92
2022-11-19T12:03:13.716Z,2.38
2022-11-19T12:06:06.023Z,2.22
2022-11-19T12:11:58.052Z,2.33
2022-11-19T12:14:38.914Z,3.60
2022-11-19T12:17:27.255Z,1.52
2022-11-19T12:20:03.087Z,3.72
2022-11-19T12:22:42.744Z,4.85
2022-11-19T12:25:25.109Z,6.97
2022-11-19T12:28:35.622Z,8.90
2022-11-19T12:31:16.972Z,4.20
2022-11-19T12:34:03.806Z,2.22
2022-11-19T12:36:42.172Z,2.13
2022-11-19T12:39:53.236Z,2.50
2022-11-19T12:42:25.166Z,2.13
2022-11-19T12:45:19.126Z,2.60
2022-11-19T12:48:14.547Z,3.88
2022-11-19T12:51:23.562Z,2.05
2022-11-19T12:54:33.378Z,2.58
2022-11-19T12:57:23.226Z,3.83
2022-11-19T13:00:04.604Z,3.50
2022-11-19T13:02:52.631Z,2.28
2022-11-19T13:05:31.970Z,2.67
2022-11-19T13:08:06.497Z,3.13
2022-11-19T13:10:44.867Z,2.13
2022-11-19T13:13:19.420Z,2.63
2022-11-19T13:15:57.043Z,3.30
2022-11-19T13:18:30.790Z,3.30
2022-11-19T13:21:04.482Z,4.15
2022-11-19T13:23:40.504Z,2.80
2022-11-19T13:26:28.337Z,2.85
2022-11-19T13:29:42.243Z,4.07
2022-11-19T13:32:22.852Z,5.05
2022-11-19T13:34:58.979Z,5.25
2022-11-19T13:37:41.753Z,5.45
2022-11-19T13:40:30.199Z,4.53
2022-11-19T13:43:31.538Z,3.63
2022-11-19T13:46:21.782Z,4.03
2022-11-19T13:49:03.343Z,3.15
2022-11-19T13:51:42.473Z,4.13
2022-11-19T13:54:22.027Z,4.47
2022-11-19T13:56:55.610Z,4.20
2022-11-19T13:59:28.062Z,3.50
2022-11-19T14:02:11.730Z,4.90
2022-11-19T14:05:12.661Z,5.68
2022-11-19T14:08:21.857Z,5.30
2022-11-19T14:11:25.490Z,5.47
2022-11-19T14:14:04.329Z,8.32
2022-11-19T14:17:06.831Z,5.60
2022-11-19T14:20:12.382Z,5.32
2022-11-19T14:23:02.056Z,6.75
2022-11-19T14:26:08.242Z,4.78
2022-11-19T14:28:47.791Z,3.55
2022-11-19T14:31:16.157Z,4.78
2022-11-19T14:33:48.964Z,4.20
2022-11-19T14:36:43.494Z,2.95
2022-11-19T14:39:40.583Z,5.10
2022-11-19T14:42:22.311Z,6.90
2022-11-19T14:45:03.561Z,9.45
2022-11-19T14:47:40.412Z,6.43
2022-11-19T14:50:29.602Z,4.57
2022-11-19T14:53:01.084Z,3.50
2022-11-19T14:55:34.536Z,5.60
2022-11-19T14:58:19.524Z,3.53
2022-11-19T15:00:49.035Z,3.92
2022-11-19T15:03:24.119Z,5.05
2022-11-19T15:05:53.167Z,4.55
2022-11-19T15:08:22.095Z,9.05
2022-11-19T15:11:10.641Z,6.05
2022-11-19T15:13:40.145Z,5.13
2022-11-19T15:16:11.765Z,6.15
2022-11-19T15:18:43.645Z,7.22
2022-11-19T15:21:13.370Z,6.53
2022-11-19T15:24:08.019Z,8.95
2022-11-19T15:27:02.516Z,12.88
2022-11-19T15:29:59.590Z,6.28
2022-11-19T15:32:52.940Z,7.28
2022-11-19T15:35:21.819Z,9.00
2022-11-19T15:37:54.065Z,17.40
2022-11-19T15:40:30.848Z,8.77
2022-11-19T15:43:23.451Z,15.00
2022-11-19T15:46:01.087Z,15.88
2022-11-19T15:48:56.563Z,7.32
2022-11-19T15:51:25.870Z,7.88
2022-11-19T15:54:04.952Z,6.78
2022-11-19T15:56:53.128Z,7.35
2022-11-19T15:59:21.005Z,6.53
2022-11-19T16:02:03.187Z,6.50
2022-11-19T16:04:38.647Z,5.28
2022-11-19T16:07:08.834Z,8.18
2022-11-19T16:09:38.529Z,9.13
2022-11-19T16:12:37.275Z,18.20
2022-11-19T16:15:39.964Z,15.15
2022-11-19T16:18:20.016Z,11.23
2022-11-19T16:20:50.322Z,12.48
2022-11-19T16:23:25.501Z,12.80
2022-11-19T16:25:55.498Z,8.55
2022-11-19T16:28:30.446Z,12.02
2022-11-19T16:31:05.052Z,13.32
2022-11-19T16:33:33.213Z,11.05
2022-11-19T16:36:29.870Z,10.73
2022-11-19T16:38:57.248Z,9.95
2022-11-19T16:41:45.390Z,11.52
2022-11-19T16:44:18.826Z,14.25
2022-11-19T16:46:46.277Z,11.23
2022-11-19T16:49:32.030Z,8.88
2022-11-19T16:52:03.042Z,13.35
2022-11-19T16:54:52.378Z,7.00
2022-11-19T16:57:27.280Z,4.65
2022-11-19T17:00:24.504Z,4.90
2022-11-19T17:02:51.767Z,7.20
2022-11-19T17:05:22.318Z,6.25
2022-11-19T17:08:03.589Z,7.97
2022-11-19T17:10:32.763Z,4.70
2022-11-19T17:13:23.672Z,5.72
2022-11-19T17:15:52.643Z,8.35
2022-11-19T17:18:34.895Z,7.22
2022-11-19T17:23:49.342Z,9.73
2022-11-19T17:26:21.925Z,7.38
2022-11-19T17:28:51.155Z,7.78
2022-11-19T17:31:26.740Z,6.78
2022-11-19T17:34:07.910Z,8.80
2022-11-19T17:36:39.892Z,9.00
2022-11-19T17:39:14.686Z,6.32
2022-11-19T17:42:01.243Z,8.88
2022-11-19T17:44:36.112Z,6.93
2022-11-19T17:49:57.377Z,7.78
2022-11-19T17:52:25.261Z,9.50
2022-11-19T17:54:53.902Z,8.35
2022-11-19T17:57:20.898Z,11.00
2022-11-19T17:59:47.729Z,9.00
2022-11-19T18:02:16.852Z,7.90
2022-11-19T18:04:47.160Z,6.80
2022-11-19T18:07:14.303Z,8.75
2022-11-19T18:09:43.292Z,9.90
2022-11-19T18:12:17.778Z,9.30
2022-11-19T18:14:45.077Z,11.68
2022-11-19T18:17:15.348Z,9.32
2022-11-19T18:19:42.176Z,11.20
2022-11-19T18:22:18.222Z,9.80
2022-11-19T18:24:50.205Z,9.75
2022-11-19T18:27:17.285Z,9.00
2022-11-19T18:29:44.060Z,13.63
2022-11-19T18:32:12.111Z,18.88
2022-11-19T18:34:41.229Z,17.77
2022-11-19T18:37:07.991Z,10.85
2022-11-19T18:39:34.836Z,10.88
2022-11-19T18:42:04.082Z,8.95
2022-11-19T18:44:33.513Z,12.13
2022-11-19T18:47:06.418Z,13.93
2022-11-19T18:49:34.916Z,10.73
2022-11-19T18:52:09.572Z,8.65
2022-11-19T18:54:36.611Z,8.63
2022-11-19T18:57:04.269Z,10.18
2022-11-19T18:59:31.030Z,12.50
2022-11-19T19:02:00.005Z,9.52
2022-11-19T19:04:26.855Z,9.65
2022-11-19T19:06:53.798Z,10.00
2022-11-19T19:09:21.119Z,9.88
2022-11-19T19:12:13.035Z,8.90
2022-11-19T19:17:10.534Z,10.07
2022-11-19T19:19:37.543Z,13.05
2022-11-19T19:22:04.895Z,10.27
2022-11-19T19:24:32.530Z,12.55
2022-11-19T19:27:00.392Z,14.55
2022-11-19T19:29:27.571Z,14.32
2022-11-19T19:31:58.007Z,14.02
2022-11-19T19:34:24.807Z,9.93
2022-11-19T19:36:53.389Z,13.07
2022-11-19T19:39:23.168Z,13.23
2022-11-19T19:41:50.241Z,12.25
2022-11-19T19:44:19.213Z,14.98
2022-11-19T19:46:48.710Z,12.07
2022-11-19T19:49:15.777Z,12.38
2022-11-19T19:51:44.731Z,13.82
2022-11-19T19:54:13.661Z,13.30
2022-11-19T19:56:40.918Z,13.68
2022-11-19T19:59:11.455Z,17.40
2022-11-19T20:01:38.492Z,11.77
2022-11-19T20:04:08.262Z,13.15
2022-11-19T20:06:43.494Z,10.75
2022-11-19T20:09:10.417Z,11.77
2022-11-19T20:11:38.116Z,15.48
2022-11-19T20:14:07.609Z,17.30
2022-11-19T20:16:39.410Z,15.52
2022-11-19T20:19:08.851Z,12.18
2022-11-19T20:21:38.306Z,12.00
2022-11-19T20:24:11.898Z,11.95
2022-11-19T20:26:40.429Z,15.43
2022-11-19T20:29:07.413Z,11.40
2022-11-19T20:31:35.297Z,15.32
2022-11-19T20:34:04.169Z,12.10
2022-11-19T20:36:35.501Z,11.38
2022-11-19T20:39:03.049Z,11.75
2022-11-19T20:41:48.034Z,15.18
2022-11-19T20:44:22.721Z,13.57
2022-11-19T20:46:57.013Z,15.80
2022-11-19T20:49:26.198Z,12.48
2022-11-19T20:51:53.621Z,11.55
2022-11-19T20:54:23.679Z,13.88
2022-11-19T20:56:51.495Z,16.27
2022-11-19T20:59:19.114Z,12.15
2022-11-19T21:01:48.403Z,13.68
2022-11-19T21:04:17.244Z,13.93
2022-11-19T21:06:44.101Z,13.80
2022-11-19T21:09:15.638Z,12.75
2022-11-19T21:11:43.384Z,15.93
2022-11-19T21:14:10.154Z,12.75
2022-11-19T21:16:39.081Z,15.50
2022-11-19T21:19:05.839Z,11.77
2022-11-19T21:21:32.727Z,11.05
2022-11-19T21:24:01.875Z,9.98
2022-11-19T21:26:31.106Z,18.75
2022-11-19T21:28:59.328Z,14.70
2022-11-19T21:31:48.638Z,15.02
2022-11-19T21:34:23.189Z,15.20
2022-11-19T21:36:50.542Z,10.93
2022-11-19T21:39:18.074Z,13.18
2022-11-19T21:41:44.882Z,12.60
2022-11-19T21:44:14.305Z,10.15
2022-11-19T21:46:43.416Z,10.13
2022-11-19T21:49:10.065Z,11.52
2022-11-19T21:51:39.271Z,13.70
2022-11-19T21:54:06.147Z,11.32
2022-11-19T21:56:38.530Z,13.07
2022-11-19T21:59:07.894Z,15.20
2022-11-19T22:01:34.905Z,9.82
2022-11-19T22:04:01.729Z,10.35
2022-11-19T22:06:28.781Z,10.23
2022-11-19T22:09:01.432Z,10.40
2022-11-19T22:11:31.925Z,10.48
2022-11-19T22:14:04.113Z,10.65
2022-11-19T22:16:33.126Z,10.80
2022-11-19T22:19:02.549Z,9.57
2022-11-19T22:21:29.400Z,12.73
2022-11-19T22:23:58.794Z,12.93
2022-11-19T22:26:27.920Z,12.55
2022-11-19T22:28:54.825Z,12.73
2022-11-19T22:31:22.089Z,11.00
2022-11-19T22:33:53.800Z,13.57
2022-11-19T22:36:22.310Z,13.95
2022-11-19T22:38:52.014Z,9.45
2022-11-19T22:41:21.173Z,9.70
2022-11-19T22:43:48.087Z,9.70
2022-11-19T22:46:15.428Z,14.20
2022-11-19T22:48:44.870Z,12.10
2022-11-19T22:51:18.481Z,9.43
2022-11-19T22:53:48.047Z,10.63
2022-11-19T22:56:17.587Z,9.50
2022-11-19T22:58:46.898Z,13.02
2022-11-19T23:01:24.353Z,10.15
2022-11-19T23:03:51.904Z,10.77
2022-11-19T23:06:19.022Z,12.02
2022-11-19T23:08:46.154Z,12.80
2022-11-19T23:11:14.678Z,16.55
2022-11-19T23:13:43.996Z,14.73
2022-11-19T23:16:12.157Z,10.55
2022-11-19T23:18:50.109Z,11.93
2022-11-19T23:21:29.545Z,11.95
2022-11-19T23:23:58.192Z,10.70
2022-11-19T23:26:26.732Z,9.68
2022-11-19T23:28:53.950Z,10.30
2022-11-19T23:31:23.793Z,9.10
2022-11-19T23:33:58.801Z,11.75
2022-11-19T23:36:31.097Z,9.98
2022-11-19T23:38:58.900Z,9.55
2022-11-19T23:41:26.481Z,9.50
2022-11-19T23:43:56.181Z,7.35
2022-11-19T23:46:27.561Z,7.80
2022-11-19T23:48:58.028Z,7.68
2022-11-19T23:51:27.912Z,7.95
2022-11-19T23:53:57.662Z,7.53
2022-11-19T23:56:29.062Z,10.27
2022-11-19T23:58:56.542Z,8.10
